Time;durP1;ratioP1;P1;durP2;ratioP2;P2;SDS_P1;SDS_P2;PMS_P1;PMS_P2;Temp;Humidity;BMP_temperature;BMP_pressure;BME280_temperature;BME280_humidity;BME280_pressure;Samples;Min_cycle;Max_cycle;Signal;HPM_P1;HPM_P2
2022/12/18 00:00:40;;;;;;;56.85;19.13;;;;;;;0.27;55.56;102933.53;4960476;28;99933;-72
2022/12/18 00:03:07;;;;;;;55.42;17.55;;;;;;;0.29;56.11;102937.09;4969216;28;96806;-71
2022/12/18 00:05:41;;;;;;;51.58;16.83;;;;;;;0.62;54.71;102929.78;4965299;28;99264;-74
2022/12/18 00:08:09;;;;;;;49.47;17.17;;;;;;;0.45;55.57;102943.84;4955959;28;99095;-72
2022/12/18 00:10:36;;;;;;;46.70;16.73;;;;;;;0.49;54.71;102948.31;4963856;28;98770;-71
2022/12/18 00:13:02;;;;;;;52.33;19.55;;;;;;;0.39;55.34;102945.34;4965894;28;98513;-71
2022/12/18 00:15:28;;;;;;;49.30;17.10;;;;;;;0.19;55.59;102954.06;4966403;28;99242;-73
2022/12/18 00:17:55;;;;;;;43.17;16.38;;;;;;;-0.02;56.40;102958.34;4968522;28;98795;-72
2022/12/18 00:20:25;;;;;;;46.38;16.42;;;;;;;0.18;55.87;102953.97;4963722;28;96953;-71
2022/12/18 00:22:51;;;;;;;43.83;15.93;;;;;;;-0.02;55.97;102943.63;4966780;28;96841;-74
2022/12/18 00:25:19;;;;;;;49.17;17.30;;;;;;;0.06;56.09;102941.38;4965438;28;98888;-75
2022/12/18 00:27:46;;;;;;;46.95;16.15;;;;;;;-0.05;56.39;102942.59;4966946;28;98925;-72
2022/12/18 00:30:13;;;;;;;44.50;15.82;;;;;;;-0.29;56.89;102944.16;4965995;28;98136;-74
2022/12/18 00:32:39;;;;;;;49.33;16.23;;;;;;;-0.19;56.86;102954.09;4968964;28;96890;-72
2022/12/18 00:35:06;;;;;;;43.90;15.85;;;;;;;-0.14;55.83;102957.81;4963617;28;98227;-72
2022/12/18 00:37:34;;;;;;;40.22;14.45;;;;;;;-0.54;57.29;102950.88;4962151;28;99162;-72
2022/12/18 00:40:01;;;;;;;38.65;15.35;;;;;;;-0.31;56.54;102944.06;4960418;28;97143;-72
2022/12/18 00:45:13;;;;;;;51.72;17.60;;;;;;;-0.10;56.13;102945.00;4960763;28;98989;-72
2022/12/18 00:47:39;;;;;;;54.35;17.48;;;;;;;0.09;55.76;102941.47;4963937;28;99029;-74
2022/12/18 00:50:07;;;;;;;50.83;17.95;;;;;;;-0.11;57.04;102939.75;4960328;28;98286;-77
2022/12/18 00:52:34;;;;;;;66.10;18.67;;;;;;;0.08;55.85;102942.28;4965482;28;96940;-71
2022/12/18 00:55:00;;;;;;;58.58;19.55;;;;;;;0.14;56.11;102937.34;4968735;28;100685;-73
2022/12/18 00:57:26;;;;;;;55.15;18.00;;;;;;;-0.05;55.76;102935.69;4965794;28;97863;-72
2022/12/18 00:59:54;;;;;;;53.45;18.55;;;;;;;-0.06;55.65;102935.63;4970515;28;96863;-72
2022/12/18 01:02:21;;;;;;;53.75;17.80;;;;;;;-0.11;55.67;102931.94;4965164;28;98238;-73
2022/12/18 01:04:47;;;;;;;42.17;15.90;;;;;;;-0.21;56.17;102937.59;4967208;28;99234;-71
2022/12/18 01:07:14;;;;;;;46.85;15.15;;;;;;;-0.35;56.03;102941.28;4967187;28;99404;-72
2022/12/18 01:09:40;;;;;;;44.78;15.32;;;;;;;-0.37;56.33;102945.53;4969793;28;96915;-71
2022/12/18 01:12:07;;;;;;;52.03;18.10;;;;;;;-0.18;56.12;102945.50;4972739;28;96934;-71
2022/12/18 01:14:33;;;;;;;51.10;17.00;;;;;;;-0.09;56.02;102946.78;4970937;28;99326;-73
2022/12/18 01:17:02;;;;;;;52.85;18.13;;;;;;;-0.11;55.51;102951.03;4971588;28;99287;-70
2022/12/18 01:19:29;;;;;;;51.85;17.98;;;;;;;-0.12;56.01;102953.56;4970200;28;98783;-72
2022/12/18 01:21:55;;;;;;;47.30;17.15;;;;;;;0.21;54.94;102956.69;4968285;28;96959;-71
2022/12/18 01:24:22;;;;;;;48.45;17.98;;;;;;;-0.04;55.65;102965.19;4967721;28;100315;-72
2022/12/18 01:26:48;;;;;;;43.85;16.33;;;;;;;-0.09;55.44;102974.50;4971666;28;98851;-70
2022/12/18 01:29:15;;;;;;;50.70;18.20;;;;;;;-0.04;55.52;102975.56;4971928;28;96858;-71
2022/12/18 01:31:42;;;;;;;52.03;18.50;;;;;;;-0.17;55.89;102973.25;4970585;28;96875;-70
2022/12/18 01:34:10;;;;;;;52.92;17.95;;;;;;;-0.50;56.28;102968.34;4969505;28;98931;-72
2022/12/18 01:36:38;;;;;;;53.22;17.58;;;;;;;-0.27;56.60;102966.78;4968292;28;99095;-70
2022/12/18 01:39:06;;;;;;;54.33;18.35;;;;;;;-0.36;56.67;102970.69;4966662;28;97126;-72
2022/12/18 01:45:02;;;;;;;54.67;19.15;;;;;;;0.10;54.76;102978.75;4965836;28;98987;-70
2022/12/18 01:47:33;;;;;;;54.35;18.33;;;;;;;0.00;54.91;102972.31;4891312;28;98835;-70
2022/12/18 01:50:05;;;;;;;47.95;16.50;;;;;;;-0.06;55.33;102972.00;4897216;28;97095;-69
2022/12/18 01:52:33;;;;;;;52.58;18.65;;;;;;;-0.13;55.21;102976.06;4929208;28;98787;-73
2022/12/18 01:55:02;;;;;;;52.65;17.48;;;;;;;0.20;54.39;102971.41;4966658;28;99092;-70
2022/12/18 01:57:29;;;;;;;54.33;19.75;;;;;;;-0.03;54.41;102977.34;4965492;28;99281;-70
2022/12/18 02:00:00;;;;;;;53.17;17.73;;;;;;;-0.12;55.36;102983.03;4972651;28;96930;-72
2022/12/18 02:02:28;;;;;;;52.08;17.02;;;;;;;-0.08;55.51;102973.69;4968547;28;96895;-73
2022/12/18 02:04:54;;;;;;;44.60;16.65;;;;;;;0.14;54.87;102980.66;4971363;28;101310;-72
2022/12/18 02:07:32;;;;;;;53.83;19.13;;;;;;;-0.16;55.23;102985.44;4971054;28;98783;-71
2022/12/18 02:10:03;;;;;;;47.65;17.25;;;;;;;-0.53;56.22;102982.94;4970960;28;97065;-74
2022/12/18 02:12:40;;;;;;;49.42;17.40;;;;;;;-0.32;55.70;102982.97;4961518;28;98238;-74
2022/12/18 02:15:14;;;;;;;54.78;18.80;;;;;;;-0.22;55.90;102987.78;4955915;28;98907;-72
2022/12/18 02:17:45;;;;;;;60.78;19.48;;;;;;;-0.52;56.63;102980.38;4959810;28;98886;-73
2022/12/18 02:20:17;;;;;;;57.97;18.70;;;;;;;-0.44;55.94;102989.41;4966001;28;96815;-73
2022/12/18 02:22:58;;;;;;;53.03;18.30;;;;;;;-0.16;55.80;102985.44;4966451;28;98470;-73
2022/12/18 02:25:41;;;;;;;57.08;16.92;;;;;;;-0.37;56.14;102984.50;4963991;28;98960;-72
2022/12/18 02:28:13;;;;;;;51.47;17.85;;;;;;;-0.33;55.77;102981.22;4966070;28;100508;-72
2022/12/18 02:30:42;;;;;;;62.15;19.35;;;;;;;-0.56;56.27;102978.47;4968116;28;98954;-72
2022/12/18 02:33:10;;;;;;;51.35;17.70;;;;;;;-0.65;56.52;102995.34;4960221;28;98699;-72
2022/12/18 02:35:37;;;;;;;53.35;18.33;;;;;;;-0.32;56.09;103003.75;4966398;28;98682;-73
2022/12/18 02:38:05;;;;;;;60.55;19.92;;;;;;;-0.49;55.88;103006.50;4964215;28;101795;-75
2022/12/18 02:40:32;;;;;;;57.53;19.27;;;;;;;-0.41;55.80;103007.75;4973348;28;97355;-71
2022/12/18 02:43:04;;;;;;;55.72;19.00;;;;;;;-0.50;56.27;103009.91;4974124;28;96864;-74
2022/12/18 02:45:32;;;;;;;52.88;18.33;;;;;;;-0.18;55.53;103006.16;4962264;28;99269;-72
2022/12/18 02:47:58;;;;;;;51.83;17.52;;;;;;;-0.59;55.98;103012.09;4967718;28;98120;-72
2022/12/18 02:50:35;;;;;;;60.67;19.10;;;;;;;-0.70;56.08;103005.53;4972317;28;96748;-72
2022/12/18 02:53:11;;;;;;;57.05;18.15;;;;;;;-0.54;56.42;103008.00;4961189;28;96767;-72
2022/12/18 02:55:51;;;;;;;59.20;18.25;;;;;;;-0.43;55.79;103011.97;4969297;28;101755;-73
2022/12/18 02:58:21;;;;;;;56.00;17.58;;;;;;;-0.36;55.47;103007.06;4963815;28;99306;-75
2022/12/18 03:00:59;;;;;;;57.70;18.63;;;;;;;-0.44;55.63;102999.81;4970390;28;96765;-72
2022/12/18 03:03:31;;;;;;;57.47;19.27;;;;;;;-0.38;55.89;102995.69;4976857;28;97075;-72
2022/12/18 03:06:03;;;;;;;50.60;17.08;;;;;;;-0.53;56.26;103002.00;4976035;28;97851;-72
2022/12/18 03:08:33;;;;;;;51.78;17.35;;;;;;;-0.45;55.49;103004.91;4963204;28;97561;-71
2022/12/18 03:11:03;;;;;;;51.55;18.15;;;;;;;-0.46;55.94;103006.63;4962041;28;96825;-72
2022/12/18 03:13:35;;;;;;;51.78;17.23;;;;;;;-0.55;56.13;103014.03;4967131;28;97175;-71
2022/12/18 03:16:06;;;;;;;50.35;17.50;;;;;;;-0.46;55.85;103010.97;4964312;28;99276;-72
2022/12/18 03:18:38;;;;;;;51.85;17.58;;;;;;;-0.51;55.48;103008.13;4966231;28;99859;-71
2022/12/18 03:21:07;;;;;;;55.28;19.85;;;;;;;-0.35;55.52;103004.53;4965039;28;96838;-71
2022/12/18 03:23:37;;;;;;;57.28;17.95;;;;;;;-0.07;54.64;103012.72;4959895;28;96781;-71
2022/12/18 03:26:07;;;;;;;57.80;18.48;;;;;;;-0.22;54.97;103011.16;4968453;28;100763;-72
2022/12/18 03:28:38;;;;;;;58.80;17.77;;;;;;;-0.48;55.35;103013.47;4965078;28;98866;-71
2022/12/18 03:31:10;;;;;;;59.30;20.48;;;;;;;-0.43;55.13;103014.56;4953998;28;96633;-72
2022/12/18 03:33:42;;;;;;;55.30;20.02;;;;;;;-0.39;55.38;103014.72;4968031;28;96714;-73
2022/12/18 03:36:09;;;;;;;60.50;20.92;;;;;;;-0.35;55.27;103014.94;4967527;28;98908;-73
2022/12/18 03:38:35;;;;;;;60.38;20.27;;;;;;;-0.49;55.35;103006.50;4972505;28;98713;-72
2022/12/18 03:41:11;;;;;;;60.65;20.33;;;;;;;-0.54;55.15;103005.41;4969359;28;97034;-72
2022/12/18 03:43:46;;;;;;;67.90;20.30;;;;;;;-0.48;54.97;103000.50;4965881;28;96789;-71
2022/12/18 03:46:22;;;;;;;69.15;22.58;;;;;;;-0.52;54.94;103003.75;4962199;28;100687;-71
2022/12/18 03:48:57;;;;;;;58.53;20.10;;;;;;;-0.37;55.25;103011.34;4953262;28;99240;-72
2022/12/18 03:51:29;;;;;;;67.10;22.02;;;;;;;-0.54;54.99;103013.22;4964467;28;96727;-72
2022/12/18 03:53:59;;;;;;;73.50;22.50;;;;;;;-0.58;55.22;103018.16;4972225;28;96840;-72
2022/12/18 03:56:30;;;;;;;76.45;23.95;;;;;;;-0.59;55.40;103019.88;4964128;28;99804;-71
2022/12/18 03:58:59;;;;;;;72.63;22.52;;;;;;;-0.55;55.04;103014.03;4971086;28;98859;-71
2022/12/18 04:01:33;;;;;;;72.72;21.92;;;;;;;-0.50;55.13;103009.03;4971064;28;96859;-71
2022/12/18 04:04:01;;;;;;;77.75;25.00;;;;;;;-0.42;54.87;103008.56;4976220;28;97071;-72
2022/12/18 04:06:28;;;;;;;90.38;26.27;;;;;;;-0.49;54.99;103010.81;4964463;28;97846;-71
2022/12/18 04:08:55;;;;;;;81.60;25.50;;;;;;;-0.42;55.17;103021.56;4966422;28;98949;-71
2022/12/18 04:11:21;;;;;;;77.50;25.55;;;;;;;-0.53;54.92;103011.50;4966461;28;96866;-71
2022/12/18 04:13:47;;;;;;;84.18;26.00;;;;;;;-0.72;55.52;103012.34;4969190;28;97030;-70
2022/12/18 04:16:14;;;;;;;90.35;27.50;;;;;;;-0.79;55.81;103022.41;4968859;28;99357;-70
2022/12/18 04:18:42;;;;;;;94.50;28.20;;;;;;;-0.81;55.62;103024.91;4964368;28;101520;-71
2022/12/18 04:21:08;;;;;;;93.07;27.10;;;;;;;-0.98;56.18;103041.38;4964786;28;97194;-71
2022/12/18 04:23:35;;;;;;;95.40;28.38;;;;;;;-0.69;55.91;103042.75;4971302;28;98396;-70
2022/12/18 04:26:01;;;;;;;90.88;28.30;;;;;;;-0.62;55.00;103034.44;4961629;28;97726;-72
2022/12/18 04:28:28;;;;;;;91.53;27.38;;;;;;;-0.69;55.21;103029.78;4961825;28;97618;-71
2022/12/18 04:30:54;;;;;;;100.32;28.58;;;;;;;-0.69;55.28;103028.06;4969878;28;96862;-70
2022/12/18 04:33:20;;;;;;;95.53;29.25;;;;;;;-0.65;55.54;103029.97;4963563;28;97978;-70
2022/12/18 04:35:48;;;;;;;90.60;27.70;;;;;;;-0.89;55.41;103034.03;4969971;28;99540;-72
2022/12/18 04:38:15;;;;;;;101.95;30.10;;;;;;;-0.59;54.79;103039.78;4974449;28;98866;-71
2022/12/18 04:40:41;;;;;;;89.53;26.63;;;;;;;-0.73;55.36;103040.84;4979479;28;96891;-72
2022/12/18 04:43:08;;;;;;;95.63;27.02;;;;;;;-0.45;54.68;103044.78;4978846;28;96939;-72
2022/12/18 04:45:34;;;;;;;97.28;28.98;;;;;;;-0.64;54.89;103042.16;4973555;28;99310;-72
2022/12/18 04:48:02;;;;;;;98.45;29.70;;;;;;;-0.58;55.11;103042.44;4971173;28;98786;-72
2022/12/18 04:50:29;;;;;;;91.47;26.83;;;;;;;-0.64;54.63;103039.56;4971407;28;98138;-73
2022/12/18 04:52:57;;;;;;;94.95;27.65;;;;;;;-0.78;55.15;103039.72;4969959;28;97319;-75
2022/12/18 04:55:27;;;;;;;91.72;26.88;;;;;;;-0.61;54.91;103031.91;4972315;28;98914;-73
2022/12/18 04:57:53;;;;;;;100.15;26.77;;;;;;;-0.51;54.79;103026.31;4977099;28;98925;-72
2022/12/18 05:00:20;;;;;;;87.32;24.60;;;;;;;-0.96;55.51;103032.84;4967037;28;97220;-73
2022/12/18 05:02:47;;;;;;;86.93;25.27;;;;;;;-1.06;56.01;103040.13;4970864;28;96932;-72
2022/12/18 05:05:13;;;;;;;83.63;26.25;;;;;;;-1.21;56.55;103048.94;4968975;28;98202;-72
2022/12/18 05:07:40;;;;;;;79.60;25.10;;;;;;;-0.93;56.21;103050.28;4974344;28;98792;-71
2022/12/18 05:10:09;;;;;;;85.85;24.65;;;;;;;-0.77;55.13;103060.56;4969984;28;96793;-71
2022/12/18 05:12:57;;;;;;;79.43;25.05;;;;;;;-0.75;55.06;103063.25;4972363;28;96813;-72
2022/12/18 05:15:22;;;;;;;85.90;24.85;;;;;;;-1.03;55.66;103055.84;4975664;28;98798;-72
2022/12/18 05:17:48;;;;;;;89.28;26.55;;;;;;;-1.07;56.39;103053.94;4969990;28;99120;-72
2022/12/18 05:20:15;;;;;;;87.45;25.95;;;;;;;-0.68;55.23;103055.81;4962209;28;96972;-72
2022/12/18 05:22:41;;;;;;;88.00;25.63;;;;;;;-0.87;55.51;103074.84;4969694;28;96889;-73
2022/12/18 05:25:09;;;;;;;86.93;25.20;;;;;;;-1.02;55.57;103074.09;4972138;28;100969;-72
2022/12/18 05:27:35;;;;;;;81.72;22.98;;;;;;;-0.74;55.47;103081.50;4963654;28;99218;-72
2022/12/18 05:30:02;;;;;;;73.15;21.73;;;;;;;-0.91;55.40;103078.06;4958610;28;96911;-71
2022/12/18 05:32:28;;;;;;;77.45;24.38;;;;;;;-0.77;55.06;103083.94;4968678;28;96842;-70
2022/12/18 05:34:57;;;;;;;83.85;25.35;;;;;;;-0.81;55.51;103090.69;4968070;28;98917;-71
2022/12/18 05:37:23;;;;;;;75.97;22.60;;;;;;;-0.87;55.28;103089.50;4967198;28;99341;-71
2022/12/18 05:39:50;;;;;;;78.20;23.60;;;;;;;-0.60;54.80;103085.63;4970233;28;98507;-72
2022/12/18 05:42:17;;;;;;;75.75;21.85;;;;;;;-0.72;54.74;103087.63;4975549;28;97026;-72
2022/12/18 05:44:44;;;;;;;71.13;21.77;;;;;;;-0.89;55.33;103086.84;4966669;28;102290;-73
2022/12/18 05:47:10;;;;;;;71.00;23.00;;;;;;;-1.11;55.96;103083.13;4964315;28;99185;-71
2022/12/18 05:49:37;;;;;;;81.10;23.40;;;;;;;-0.75;55.61;103087.50;4970450;28;97456;-70
2022/12/18 05:52:03;;;;;;;69.30;21.60;;;;;;;-0.71;55.46;103089.41;4966038;28;97646;-72
2022/12/18 05:54:30;;;;;;;75.07;22.70;;;;;;;-0.56;54.66;103097.94;4973410;28;101446;-71
2022/12/18 05:56:57;;;;;;;75.90;21.73;;;;;;;-0.78;55.51;103092.53;4961742;28;100472;-72
2022/12/18 05:59:25;;;;;;;76.78;23.73;;;;;;;-0.84;55.38;103092.25;4967211;28;96929;-71
2022/12/18 06:01:52;;;;;;;79.95;23.98;;;;;;;-0.79;55.87;103088.19;4961139;28;96966;-72
2022/12/18 06:04:18;;;;;;;71.97;21.33;;;;;;;-0.77;55.24;103099.50;4967771;28;98547;-70
2022/12/18 06:06:44;;;;;;;72.85;23.27;;;;;;;-0.64;55.55;103098.38;4963945;28;98776;-71
2022/12/18 06:09:11;;;;;;;75.78;22.42;;;;;;;-0.76;55.55;103111.69;4963947;28;97745;-71
2022/12/18 06:11:38;;;;;;;86.80;24.10;;;;;;;-0.81;55.32;103113.16;4968411;28;96875;-71
2022/12/18 06:14:07;;;;;;;78.53;22.42;;;;;;;-0.76;55.42;103109.09;4965270;28;97905;-71
2022/12/18 06:16:35;;;;;;;84.70;24.30;;;;;;;-0.53;55.39;103111.09;4968985;28;99152;-71
2022/12/18 06:19:04;;;;;;;84.03;25.23;;;;;;;-0.57;55.50;103110.84;4966245;28;98580;-72
2022/12/18 06:21:31;;;;;;;73.88;23.15;;;;;;;-0.86;55.41;103114.66;4969494;28;96813;-71
2022/12/18 06:23:57;;;;;;;87.30;25.83;;;;;;;-0.75;55.96;103116.06;4965389;28;98257;-72
2022/12/18 06:26:24;;;;;;;88.55;25.25;;;;;;;-0.56;55.45;103107.44;4971208;28;100460;-73
2022/12/18 06:28:50;;;;;;;85.47;25.55;;;;;;;-0.60;55.46;103114.22;4965467;28;98500;-71
2022/12/18 06:31:17;;;;;;;86.93;25.27;;;;;;;-0.70;55.29;103114.56;4962878;28;96730;-73
2022/12/18 06:33:44;;;;;;;82.38;26.33;;;;;;;-0.68;55.29;103127.63;4961123;28;98847;-71
2022/12/18 06:36:13;;;;;;;79.45;25.92;;;;;;;-0.69;55.07;103131.03;4966985;28;96822;-71
2022/12/18 06:38:43;;;;;;;82.03;24.90;;;;;;;-0.65;55.10;103132.94;4967841;28;96759;-72
2022/12/18 06:41:10;;;;;;;85.68;26.88;;;;;;;-0.79;55.53;103145.28;4968207;28;99461;-70
2022/12/18 06:43:36;;;;;;;82.35;25.55;;;;;;;-0.93;55.71;103151.50;4971305;28;100097;-71
2022/12/18 06:46:04;;;;;;;87.32;25.10;;;;;;;-0.83;55.69;103145.94;4964527;28;100005;-72
2022/12/18 06:48:31;;;;;;;90.18;26.23;;;;;;;-0.92;56.08;103141.19;4962000;28;96673;-72
2022/12/18 06:50:59;;;;;;;74.40;20.52;;;;;;;-1.30;56.69;103143.56;4970587;28;98728;-71
2022/12/18 06:53:26;;;;;;;84.57;26.83;;;;;;;-1.03;56.07;103159.63;4970413;28;100589;-65
2022/12/18 06:55:52;;;;;;;76.30;25.55;;;;;;;-1.07;56.50;103166.41;4969620;28;98926;-65
2022/12/18 06:58:19;;;;;;;86.00;24.77;;;;;;;-0.72;55.71;103180.25;4968480;28;96862;-64
2022/12/18 07:00:46;;;;;;;83.32;26.17;;;;;;;-0.73;55.21;103176.75;4974535;28;96822;-64
2022/12/18 07:03:12;;;;;;;83.55;25.95;;;;;;;-0.67;55.19;103168.38;4962722;28;98907;-64
2022/12/18 07:05:41;;;;;;;79.53;26.02;;;;;;;-0.84;55.89;103160.63;4969320;28;99056;-64
2022/12/18 07:08:08;;;;;;;68.40;23.55;;;;;;;-0.74;55.36;103153.31;4970446;28;96719;-64
2022/12/18 07:10:41;;;;;;;73.38;24.20;;;;;;;-0.79;55.40;103155.69;4967507;28;96833;-64
2022/12/18 07:13:08;;;;;;;73.68;22.92;;;;;;;-1.12;56.15;103159.19;4970542;28;99314;-64
2022/12/18 07:15:34;;;;;;;67.90;22.05;;;;;;;-1.31;56.97;103158.25;4969572;28;101797;-63
2022/12/18 07:18:00;;;;;;;67.80;22.35;;;;;;;-1.30;57.43;103154.84;4977223;28;97901;-63
2022/12/18 07:20:27;;;;;;;71.05;22.45;;;;;;;-1.30;57.36;103161.72;4970709;28;97072;-65
2022/12/18 07:22:53;;;;;;;63.10;21.52;;;;;;;-1.15;57.25;103159.03;4966864;28;98773;-64
2022/12/18 07:25:21;;;;;;;65.93;22.42;;;;;;;-1.13;56.66;103166.09;4968915;28;100110;-63
2022/12/18 07:27:47;;;;;;;69.22;22.17;;;;;;;-0.99;56.73;103161.59;4970715;28;96919;-63
2022/12/18 07:30:14;;;;;;;62.13;20.33;;;;;;;-0.85;56.32;103158.84;4965728;28;96946;-63
2022/12/18 07:32:40;;;;;;;67.18;21.00;;;;;;;-0.89;56.31;103158.63;4966919;28;99442;-64
2022/12/18 07:35:07;;;;;;;66.97;21.42;;;;;;;-0.79;55.90;103166.06;4965490;28;102533;-63
2022/12/18 07:37:34;;;;;;;68.47;21.55;;;;;;;-0.71;56.20;103166.41;4964668;28;97265;-63
2022/12/18 07:40:00;;;;;;;64.22;20.42;;;;;;;-0.75;55.86;103165.38;4964851;28;96664;-63
2022/12/18 07:42:31;;;;;;;62.60;21.33;;;;;;;-1.04;56.59;103163.03;4969521;28;97854;-63
2022/12/18 07:44:57;;;;;;;60.28;19.75;;;;;;;-1.07;57.20;103160.31;4964662;28;99095;-64
2022/12/18 07:47:24;;;;;;;62.50;20.30;;;;;;;-0.89;57.17;103163.81;4965798;28;96801;-63
2022/12/18 07:49:50;;;;;;;64.78;21.65;;;;;;;-0.68;56.79;103163.97;4958145;28;96885;-64
2022/12/18 07:52:17;;;;;;;63.90;21.13;;;;;;;-0.71;56.73;103166.41;4966824;28;99020;-63
2022/12/18 07:54:43;;;;;;;72.88;22.90;;;;;;;-0.56;56.28;103160.28;4960818;28;98985;-63
2022/12/18 07:57:10;;;;;;;71.80;23.42;;;;;;;-0.58;56.63;103158.41;4966015;28;97078;-64
2022/12/18 07:59:38;;;;;;;74.95;22.98;;;;;;;-0.43;56.13;103157.44;4970806;28;97521;-63
2022/12/18 08:02:04;;;;;;;80.45;24.00;;;;;;;-0.56;56.42;103154.19;4956762;28;98905;-64
2022/12/18 08:04:31;;;;;;;75.68;22.90;;;;;;;-0.39;56.55;103171.44;4973660;28;99188;-62
2022/12/18 08:06:57;;;;;;;72.15;22.70;;;;;;;-0.22;55.60;103164.47;4968595;28;97605;-62
2022/12/18 08:09:23;;;;;;;71.10;24.08;;;;;;;-0.32;56.09;103170.03;4970883;28;96790;-62
2022/12/18 08:11:50;;;;;;;69.00;21.40;;;;;;;-0.32;55.95;103170.03;4964465;28;98859;-62
2022/12/18 08:14:16;;;;;;;69.22;22.13;;;;;;;-0.38;56.25;103172.34;4953787;28;99289;-63
2022/12/18 08:16:44;;;;;;;73.75;22.95;;;;;;;-0.51;56.14;103168.28;4971806;28;96852;-63
2022/12/18 08:19:10;;;;;;;71.55;21.55;;;;;;;-0.50;56.81;103176.13;4961921;28;96805;-64
2022/12/18 08:21:40;;;;;;;66.93;22.60;;;;;;;-0.50;56.64;103177.84;4966159;28;99554;-64
2022/12/18 08:24:07;;;;;;;70.60;22.05;;;;;;;-0.42;56.01;103180.00;4964761;28;98048;-63
2022/12/18 08:26:33;;;;;;;72.55;21.38;;;;;;;-0.24;56.00;103179.09;4964071;28;96862;-63
2022/12/18 08:29:00;;;;;;;67.00;21.08;;;;;;;-0.21;55.90;103184.44;4967217;28;97046;-63
2022/12/18 08:31:29;;;;;;;71.03;23.60;;;;;;;-0.16;55.45;103185.53;4966409;28;98915;-63
2022/12/18 08:33:58;;;;;;;74.18;24.45;;;;;;;-0.14;55.88;103183.91;4971655;28;99057;-64
2022/12/18 08:36:25;;;;;;;64.50;22.35;;;;;;;-0.07;55.60;103194.66;4962704;28;98460;-63
2022/12/18 08:38:52;;;;;;;63.00;19.35;;;;;;;-0.30;56.06;103195.28;4972094;28;96843;-62
2022/12/18 08:41:19;;;;;;;74.47;21.88;;;;;;;-0.38;56.11;103193.13;4968523;28;98930;-63
2022/12/18 08:46:34;;;;;;;64.07;20.80;;;;;;;-0.24;56.47;103202.47;4963462;28;97226;-62
2022/12/18 08:49:02;;;;;;;63.72;21.67;;;;;;;-0.09;55.89;103203.22;4971752;28;98557;-64
2022/12/18 08:51:29;;;;;;;59.67;20.35;;;;;;;-0.08;55.51;103194.59;4966292;28;101119;-64
2022/12/18 08:53:55;;;;;;;61.40;20.88;;;;;;;-0.08;54.94;103205.88;4973442;28;98730;-64
2022/12/18 08:56:22;;;;;;;57.15;19.65;;;;;;;-0.10;55.02;103214.41;4964873;28;96872;-63
2022/12/18 08:58:51;;;;;;;70.60;22.35;;;;;;;-0.30;55.75;103209.97;4967410;28;97608;-63
2022/12/18 09:01:18;;;;;;;66.40;20.02;;;;;;;-0.02;54.49;103206.16;4972451;28;99173;-65
2022/12/18 09:03:48;;;;;;;60.72;19.63;;;;;;;0.01;55.14;103213.19;4968459;28;99144;-66
2022/12/18 09:06:17;;;;;;;66.53;20.90;;;;;;;0.08;54.54;103220.47;4968868;28;96791;-63
2022/12/18 09:08:45;;;;;;;57.72;19.55;;;;;;;-0.22;55.17;103224.22;4967709;28;99951;-63
2022/12/18 09:11:15;;;;;;;61.83;20.05;;;;;;;-0.07;54.77;103225.88;4966956;28;102022;-64
2022/12/18 09:13:42;;;;;;;62.95;20.65;;;;;;;-0.28;55.74;103227.44;4966911;28;98356;-64
2022/12/18 09:16:08;;;;;;;60.22;20.20;;;;;;;-0.16;56.00;103227.13;4972449;28;96832;-64
2022/12/18 09:18:34;;;;;;;59.00;20.48;;;;;;;-0.06;55.66;103238.00;4968885;28;98776;-63
2022/12/18 09:21:01;;;;;;;55.75;19.30;;;;;;;0.17;54.78;103230.41;4968065;28;99027;-64
2022/12/18 09:23:28;;;;;;;58.60;20.02;;;;;;;0.16;54.62;103224.31;4969144;28;98869;-63
2022/12/18 09:25:59;;;;;;;57.42;19.65;;;;;;;-0.07;55.10;103223.25;4965803;28;96689;-63
2022/12/18 09:28:27;;;;;;;58.13;20.13;;;;;;;-0.02;55.01;103223.47;4965773;28;96819;-63
2022/12/18 09:30:53;;;;;;;55.08;19.38;;;;;;;0.07;54.64;103221.28;4967598;28;98859;-64
2022/12/18 09:33:20;;;;;;;57.67;19.92;;;;;;;0.15;55.20;103226.84;4964638;28;99305;-63
2022/12/18 09:35:47;;;;;;;67.70;19.88;;;;;;;0.31;54.38;103235.44;4970284;28;96914;-63
2022/12/18 09:38:15;;;;;;;57.58;20.15;;;;;;;0.26;54.42;103229.09;4965885;28;97389;-64
2022/12/18 09:40:45;;;;;;;55.15;18.15;;;;;;;0.31;54.89;103222.44;4969202;28;99242;-63
2022/12/18 09:43:17;;;;;;;57.75;18.80;;;;;;;0.17;54.88;103210.50;4969410;28;100753;-63
2022/12/18 09:45:47;;;;;;;59.38;19.17;;;;;;;-0.01;55.22;103215.75;4966089;28;97253;-64
2022/12/18 09:48:17;;;;;;;54.03;19.23;;;;;;;0.26;54.83;103215.25;4975153;28;97353;-64
2022/12/18 09:50:45;;;;;;;63.60;20.55;;;;;;;0.24;55.47;103209.97;4973584;28;98919;-65
2022/12/18 09:53:20;;;;;;;58.55;18.83;;;;;;;0.52;55.09;103198.22;4964516;28;96882;-63
2022/12/18 09:55:49;;;;;;;64.18;20.10;;;;;;;0.46;54.53;103190.13;4966835;28;98967;-64
2022/12/18 09:58:20;;;;;;;59.03;19.98;;;;;;;0.15;56.27;103195.63;4962088;28;97067;-63
2022/12/18 10:00:47;;;;;;;58.72;18.42;;;;;;;0.50;55.61;103176.44;4970249;28;99114;-64
2022/12/18 10:03:15;;;;;;;53.70;19.13;;;;;;;0.33;55.76;103168.75;4971104;28;98800;-64
2022/12/18 10:05:50;;;;;;;54.20;19.38;;;;;;;0.43;55.19;103161.38;4971320;28;97237;-65
2022/12/18 10:08:23;;;;;;;58.47;19.38;;;;;;;0.56;55.61;103159.38;4970944;28;97732;-63
2022/12/18 10:10:53;;;;;;;54.45;18.73;;;;;;;0.53;56.31;103158.34;4970659;28;99327;-64
2022/12/18 10:13:26;;;;;;;54.67;20.15;;;;;;;0.51;56.36;103160.00;4971286;28;98814;-63
2022/12/18 10:16:04;;;;;;;53.70;18.70;;;;;;;0.63;55.56;103156.22;4973318;28;96948;-63
2022/12/18 10:18:51;;;;;;;55.40;19.05;;;;;;;0.68;55.86;103157.28;4967631;28;96757;-64
2022/12/18 10:21:24;;;;;;;51.45;18.92;;;;;;;0.73;55.49;103154.88;4971529;28;98336;-64
2022/12/18 10:24:00;;;;;;;59.72;19.25;;;;;;;0.84;56.22;103166.66;4965075;28;99794;-64
2022/12/18 10:26:28;;;;;;;62.45;20.73;;;;;;;0.79;56.41;103162.94;4968609;28;97205;-64
2022/12/18 10:28:57;;;;;;;58.47;19.98;;;;;;;0.95;55.71;103152.38;4964918;28;96717;-66
2022/12/18 10:31:25;;;;;;;68.05;21.95;;;;;;;0.88;56.73;103160.75;4968363;28;100000;-66
2022/12/18 10:33:51;;;;;;;65.10;20.75;;;;;;;0.93;56.29;103161.81;4968030;28;98836;-65
2022/12/18 10:36:18;;;;;;;63.67;21.77;;;;;;;0.88;56.16;103154.66;4962947;28;97954;-64
2022/12/18 10:38:44;;;;;;;63.83;22.38;;;;;;;0.85;56.69;103145.03;4970749;28;97758;-65
2022/12/18 10:41:26;;;;;;;63.60;20.58;;;;;;;1.14;56.16;103151.41;4962567;28;98820;-64
2022/12/18 10:44:12;;;;;;;72.18;22.25;;;;;;;1.11;56.07;103146.09;4961709;28;97844;-64
2022/12/18 10:46:39;;;;;;;59.80;19.73;;;;;;;0.72;56.57;103140.13;4967719;28;96782;-64
2022/12/18 10:49:06;;;;;;;59.78;20.33;;;;;;;0.93;56.09;103141.00;4970949;28;96815;-65
2022/12/18 10:51:35;;;;;;;67.53;22.27;;;;;;;1.07;55.86;103133.75;4962598;28;99388;-65
2022/12/18 10:54:04;;;;;;;59.15;22.08;;;;;;;0.96;56.81;103127.22;4975975;28;100263;-64
2022/12/18 10:56:34;;;;;;;64.25;20.23;;;;;;;1.11;56.31;103120.94;4968254;28;97076;-64
2022/12/18 10:59:07;;;;;;;61.85;20.50;;;;;;;1.11;56.09;103118.34;4973129;28;96927;-63
2022/12/18 11:01:48;;;;;;;60.72;20.40;;;;;;;1.03;56.10;103114.53;4966001;28;98248;-64
2022/12/18 11:04:18;;;;;;;60.15;21.60;;;;;;;1.09;56.70;103112.19;4962962;28;101617;-64
2022/12/18 11:06:56;;;;;;;65.03;21.90;;;;;;;1.26;56.32;103109.34;4969301;28;97852;-65
2022/12/18 11:09:24;;;;;;;59.10;21.73;;;;;;;1.37;55.62;103113.28;4972632;28;96709;-64
2022/12/18 11:11:53;;;;;;;70.15;22.65;;;;;;;1.31;56.00;103107.84;4968170;28;99166;-65
2022/12/18 11:14:24;;;;;;;63.65;22.48;;;;;;;1.47;56.36;103116.31;4957505;28;99270;-65
2022/12/18 11:16:52;;;;;;;63.65;20.17;;;;;;;1.39;56.13;103115.09;4973158;28;96780;-64
2022/12/18 11:19:35;;;;;;;68.40;22.58;;;;;;;1.44;56.00;103117.91;4972677;28;96789;-65
2022/12/18 11:22:04;;;;;;;61.72;21.73;;;;;;;1.41;56.17;103130.81;4963216;28;99244;-72
2022/12/18 11:24:33;;;;;;;70.28;22.40;;;;;;;1.74;55.64;103111.28;4966308;28;99288;-73